Flight Track Log - Related Links

Times and Time Zones

All times are in EST time to prevent confusion due to time zone crossing. See the FSR411 flight status page for this flight to view local times or setup timezone preferences in your user account.

Time Position Orientation Groundspeed Altitude Reporting Facility
EST Latitude Longitude Course Direction KTS MPH feet Rate Location/Type
Tue 08:06:27 AM 42.4367 -83.0378 323° Northwest 172 198 2,100  Level Cleveland Center
Tue 08:07:27 AM 42.4694 -82.9886 48° Northeast 256 295 4,300 1,731 Climbing Cleveland Center
Tue 08:08:11 AM 42.4350 -82.9631 151° Southeast 259 298 5,100 1,770 Climbing Cleveland Center
Tue 08:08:28 AM 42.4050 -82.9542 168° South 254 292 6,100 2,419 Climbing Cleveland Center
Tue 08:09:13 AM 42.3569 -82.9406 168° South 261 300 7,600 2,164 Climbing Cleveland Center
Tue 08:09:29 AM 42.3319 -82.9528 200° South 277 319 8,300 2,226 Climbing Cleveland Center
Tue 08:10:15 AM 42.2914 -82.9778 205° Southwest 276 318 9,900 2,167 Climbing Cleveland Center
Tue 08:11:17 AM 42.1969 -83.0358 204° Southwest 309 356 12,200 2,516 Climbing Cleveland Center
Tue 08:12:19 AM 42.1036 -83.0897 203° Southwest 354 407 15,100 3,194 Climbing Cleveland Center
Tue 08:13:21 AM 42.0044 -83.1483 204° Southwest 381 438 18,800 3,435 Climbing Cleveland Center
Tue 08:14:23 AM 41.8967 -83.2108 203° Southwest 391 450 22,200 3,097 Climbing Cleveland Center
Tue 08:15:25 AM 41.8014 -83.2658 203° Southwest 396 456 25,200 2,829 Climbing Cleveland Center
Tue 08:16:26 AM 41.6994 -83.3256 204° Southwest 399 459 28,000 2,390 Climbing Cleveland Center
Tue 08:17:28 AM 41.5814 -83.3400 185° South 440 506 30,100 1,984 Climbing Cleveland Center
Tue 08:18:30 AM 41.4658 -83.3703 191° South 432 497 32,100 2,226 Climbing Cleveland Center
Tue 08:19:32 AM 41.3417 -83.4419 203° Southwest 407 468 34,700 1,839 Climbing Cleveland Center
Tue 08:20:34 AM 41.2417 -83.4978 203° Southwest 394 453 35,900 1,016 Climbing Cleveland Center
Tue 08:21:36 AM 41.1394 -83.5589 204° Southwest 402 463 36,800 871 Climbing Cleveland Center
Tue 08:22:38 AM 41.0411 -83.6136 203° Southwest 394 453 37,700 649 Climbing Cleveland Center
Tue 08:23:27 AM 40.9614 -83.6611 204° Southwest 392 451 38,000 162 Climbing Indianapolis Center
Tue 08:24:29 AM 40.8394 -83.7300 203° Southwest 396 456 38,000  Level Indianapolis Center
Tue 08:25:30 AM 40.7381 -83.7892 204° Southwest 399 459 38,000  Level Indianapolis Center
Tue 08:26:32 AM 40.6381 -83.8442 203° Southwest 393 452 38,000  Level Indianapolis Center
Tue 08:27:34 AM 40.5383 -83.9014 204° Southwest 394 453 38,000  Level Indianapolis Center
Tue 08:28:35 AM 40.4383 -83.9581 203° Southwest 393 452 38,000  Level Indianapolis Center
Tue 08:29:37 AM 40.3389 -84.0125 203° Southwest 391 450 38,000  Level Indianapolis Center
Tue 08:30:38 AM 40.2414 -84.0725 205° Southwest 391 450 38,000  Level Indianapolis Center
Tue 08:31:40 AM 40.1314 -84.1561 210° Southwest 384 442 38,000  Level Indianapolis Center
Tue 08:32:41 AM 40.0394 -84.2225 209° Southwest 382 440 38,000  Level Indianapolis Center
Tue 08:33:43 AM 39.9467 -84.2900 209° Southwest 383 441 38,000  Level Indianapolis Center
Tue 08:34:44 AM 39.8550 -84.3556 209° Southwest 381 438 38,000  Level Indianapolis Center
Tue 08:35:45 AM 39.7625 -84.4219 209° Southwest 381 438 38,000  Level Indianapolis Center
Tue 08:36:47 AM 39.6703 -84.4886 209° Southwest 381 438 38,000  Level Indianapolis Center
Tue 08:37:48 AM 39.5778 -84.5547 209° Southwest 381 438 38,000  Level Indianapolis Center
Tue 08:38:50 AM 39.4661 -84.6325 208° Southwest 382 440 38,000  Level Indianapolis Center
Tue 08:39:51 AM 39.3733 -84.6997 209° Southwest 383 441 38,000  Level Indianapolis Center
Tue 08:40:52 AM 39.2800 -84.7644 208° Southwest 382 440 38,000  Level Indianapolis Center
Tue 08:41:54 AM 39.1886 -84.8297 209° Southwest 380 437 38,000  Level Indianapolis Center
Tue 08:42:55 AM 39.0903 -84.8981 208° Southwest 378 435 38,000  Level Indianapolis Center
Tue 08:43:57 AM 38.9981 -84.9628 209° Southwest 378 435 38,000  Level Indianapolis Center
Tue 08:44:58 AM 38.9039 -85.0272 208° Southwest 381 438 38,000 -344 Level Indianapolis Center
Tue 08:45:59 AM 38.8125 -85.0922 209° Southwest 379 436 37,300 -1,073 Descending Indianapolis Center
Tue 08:47:01 AM 38.7228 -85.1544 208° Southwest 372 428 35,800 -1,415 Descending Indianapolis Center
Tue 08:48:02 AM 38.6336 -85.2147 208° Southwest 372 428 34,400 -1,610 Descending Indianapolis Center
Tue 08:49:04 AM 38.5206 -85.2939 209° Southwest 379 436 32,500 -1,659 Descending Indianapolis Center
Tue 08:50:05 AM 38.4231 -85.3603 208° Southwest 387 445 31,000 -1,475 Descending Indianapolis Center
Tue 08:51:06 AM 38.3258 -85.4256 208° Southwest 389 448 29,500 -1,463 Descending Indianapolis Center
Tue 08:52:08 AM 38.2286 -85.4922 208° Southwest 392 451 28,000 -1,463 Descending Indianapolis Center
Tue 08:53:09 AM 38.1286 -85.5603 208° Southwest 399 459 26,500 -1,610 Descending Indianapolis Center
Tue 08:54:11 AM 38.0306 -85.6314 210° Southwest 402 463 24,700 -1,902 Descending Indianapolis Center
Tue 08:55:12 AM 37.9361 -85.7017 210° Southwest 398 458 22,600 -2,115 Descending Indianapolis Center
Tue 08:56:13 AM 37.8478 -85.7683 211° Southwest 384 442 20,400 -2,146 Descending Indianapolis Center
Tue 08:57:15 AM 37.7592 -85.8344 211° Southwest 373 429 18,200 -1,902 Descending Indianapolis Center
Tue 08:58:16 AM 37.6714 -85.8997 210° Southwest 367 422 16,500 -1,967 Descending Indianapolis Center
Tue 08:59:17 AM 37.5856 -85.9631 210° Southwest 358 412 14,200 -2,244 Descending Indianapolis Center
Tue 09:00:19 AM 37.4956 -86.0306 211° Southwest 351 404 11,900 -2,049 Descending Indianapolis Center
Tue 09:01:20 AM 37.4164 -86.0875 210° Southwest 332 382 10,000 -1,869 Descending Indianapolis Center
Tue 09:02:21 AM 37.3481 -86.1392 211° Southwest 293 337 8,100 -1,707 Descending Indianapolis Center
Tue 09:03:23 AM 37.2833 -86.1861 210° Southwest 274 315 6,500 -1,610 Descending Indianapolis Center
Tue 09:04:24 AM 37.2169 -86.2353 211° Southwest 272 313 4,800 -1,220 Descending Indianapolis Center
Tue 09:05:26 AM 37.1531 -86.2814 210° Southwest 267 307 4,000 -390 Descending Indianapolis Center
Tue 09:06:27 AM 37.0983 -86.3231 211° Southwest 235 270 4,000  Level Indianapolis Center
Tue 09:07:28 AM 37.0494 -86.3567 209° Southwest 206 237 4,000  Level Indianapolis Center

Login

Don't have an account? Register now (free) for customized features, flight alerts, and more!